sensor_id;sensor_type;location;lat;lon;timestamp;P1;durP1;ratioP1;P2;durP2;ratioP2
63089;SDS011;49174;43.198;27.824;2022-11-15T00:00:49;9.18;;;5.25;;
63089;SDS011;49174;43.198;27.824;2022-11-15T00:03:16;10.35;;;5.50;;
63089;SDS011;49174;43.198;27.824;2022-11-15T00:05:42;8.93;;;4.90;;
63089;SDS011;49174;43.198;27.824;2022-11-15T00:08:08;10.32;;;5.45;;
63089;SDS011;49174;43.198;27.824;2022-11-15T00:10:34;9.43;;;5.30;;
63089;SDS011;49174;43.198;27.824;2022-11-15T00:13:04;9.45;;;4.85;;
63089;SDS011;49174;43.198;27.824;2022-11-15T00:15:30;9.77;;;5.38;;
63089;SDS011;49174;43.198;27.824;2022-11-15T00:17:56;10.57;;;5.10;;
63089;SDS011;49174;43.198;27.824;2022-11-15T00:20:21;11.55;;;5.45;;
63089;SDS011;49174;43.198;27.824;2022-11-15T00:22:49;8.23;;;4.88;;
63089;SDS011;49174;43.198;27.824;2022-11-15T00:25:14;8.95;;;4.30;;
63089;SDS011;49174;43.198;27.824;2022-11-15T00:27:40;7.85;;;4.53;;
63089;SDS011;49174;43.198;27.824;2022-11-15T00:30:05;7.35;;;4.07;;
63089;SDS011;49174;43.198;27.824;2022-11-15T00:32:31;8.77;;;4.68;;
63089;SDS011;49174;43.198;27.824;2022-11-15T00:34:57;8.27;;;4.13;;
63089;SDS011;49174;43.198;27.824;2022-11-15T00:37:23;7.07;;;4.10;;
63089;SDS011;49174;43.198;27.824;2022-11-15T00:39:48;7.15;;;3.97;;
63089;SDS011;49174;43.198;27.824;2022-11-15T00:42:14;6.43;;;4.03;;
63089;SDS011;49174;43.198;27.824;2022-11-15T00:44:39;7.32;;;4.00;;
63089;SDS011;49174;43.198;27.824;2022-11-15T00:47:05;7.35;;;3.95;;
63089;SDS011;49174;43.198;27.824;2022-11-15T00:49:30;6.60;;;4.13;;
63089;SDS011;49174;43.198;27.824;2022-11-15T00:51:56;7.00;;;3.95;;
63089;SDS011;49174;43.198;27.824;2022-11-15T00:54:21;6.60;;;4.07;;
63089;SDS011;49174;43.198;27.824;2022-11-15T00:56:47;6.28;;;3.97;;
63089;SDS011;49174;43.198;27.824;2022-11-15T00:59:12;5.82;;;3.42;;
63089;SDS011;49174;43.198;27.824;2022-11-15T01:01:38;6.47;;;4.30;;
63089;SDS011;49174;43.198;27.824;2022-11-15T01:04:05;8.65;;;4.80;;
63089;SDS011;49174;43.198;27.824;2022-11-15T01:06:31;8.00;;;4.05;;
63089;SDS011;49174;43.198;27.824;2022-11-15T01:08:56;7.43;;;4.30;;
63089;SDS011;49174;43.198;27.824;2022-11-15T01:11:22;9.40;;;4.80;;
63089;SDS011;49174;43.198;27.824;2022-11-15T01:13:47;7.90;;;4.28;;
63089;SDS011;49174;43.198;27.824;2022-11-15T01:16:14;8.20;;;5.03;;
63089;SDS011;49174;43.198;27.824;2022-11-15T01:18:42;10.35;;;4.72;;
63089;SDS011;49174;43.198;27.824;2022-11-15T01:21:09;8.93;;;4.40;;
63089;SDS011;49174;43.198;27.824;2022-11-15T01:23:36;7.57;;;4.35;;
63089;SDS011;49174;43.198;27.824;2022-11-15T01:26:03;9.40;;;4.40;;
63089;SDS011;49174;43.198;27.824;2022-11-15T01:28:34;8.02;;;4.15;;
63089;SDS011;49174;43.198;27.824;2022-11-15T01:31:02;6.50;;;3.92;;
63089;SDS011;49174;43.198;27.824;2022-11-15T01:33:29;6.78;;;3.55;;
63089;SDS011;49174;43.198;27.824;2022-11-15T01:35:55;6.55;;;3.80;;
63089;SDS011;49174;43.198;27.824;2022-11-15T01:38:21;6.10;;;3.53;;
63089;SDS011;49174;43.198;27.824;2022-11-15T01:40:48;5.47;;;3.30;;
63089;SDS011;49174;43.198;27.824;2022-11-15T01:43:21;7.13;;;4.18;;
63089;SDS011;49174;43.198;27.824;2022-11-15T01:45:49;8.05;;;4.65;;
63089;SDS011;49174;43.198;27.824;2022-11-15T01:48:19;7.30;;;4.28;;
63089;SDS011;49174;43.198;27.824;2022-11-15T01:50:46;7.03;;;4.10;;
63089;SDS011;49174;43.198;27.824;2022-11-15T01:53:11;9.27;;;4.20;;
63089;SDS011;49174;43.198;27.824;2022-11-15T01:55:37;8.52;;;4.78;;
63089;SDS011;49174;43.198;27.824;2022-11-15T01:58:03;6.30;;;4.15;;
63089;SDS011;49174;43.198;27.824;2022-11-15T02:00:30;7.20;;;4.03;;
63089;SDS011;49174;43.198;27.824;2022-11-15T02:02:57;6.45;;;3.60;;
63089;SDS011;49174;43.198;27.824;2022-11-15T02:05:22;7.55;;;4.38;;
63089;SDS011;49174;43.198;27.824;2022-11-15T02:07:48;6.10;;;3.78;;
63089;SDS011;49174;43.198;27.824;2022-11-15T02:10:19;6.63;;;3.55;;
63089;SDS011;49174;43.198;27.824;2022-11-15T02:12:46;6.68;;;3.60;;
63089;SDS011;49174;43.198;27.824;2022-11-15T02:15:13;6.35;;;4.10;;
63089;SDS011;49174;43.198;27.824;2022-11-15T02:17:51;7.05;;;4.88;;
63089;SDS011;49174;43.198;27.824;2022-11-15T02:31:31;8.77;;;4.45;;
63089;SDS011;49174;43.198;27.824;2022-11-15T02:39:34;7.38;;;4.38;;
63089;SDS011;49174;43.198;27.824;2022-11-15T02:45:23;7.40;;;4.63;;
63089;SDS011;49174;43.198;27.824;2022-11-15T02:47:54;8.43;;;4.85;;
63089;SDS011;49174;43.198;27.824;2022-11-15T02:50:23;8.85;;;5.10;;
63089;SDS011;49174;43.198;27.824;2022-11-15T02:52:52;12.10;;;6.15;;
63089;SDS011;49174;43.198;27.824;2022-11-15T02:55:30;40.67;;;21.00;;
63089;SDS011;49174;43.198;27.824;2022-11-15T02:58:07;37.35;;;18.95;;
63089;SDS011;49174;43.198;27.824;2022-11-15T03:00:56;38.10;;;21.67;;
63089;SDS011;49174;43.198;27.824;2022-11-15T03:03:34;48.35;;;28.05;;
63089;SDS011;49174;43.198;27.824;2022-11-15T03:09:24;21.92;;;13.15;;
63089;SDS011;49174;43.198;27.824;2022-11-15T03:12:02;11.43;;;7.25;;
63089;SDS011;49174;43.198;27.824;2022-11-15T03:14:38;7.45;;;5.28;;
63089;SDS011;49174;43.198;27.824;2022-11-15T03:17:19;10.52;;;6.38;;
63089;SDS011;49174;43.198;27.824;2022-11-15T03:19:52;9.68;;;6.22;;
63089;SDS011;49174;43.198;27.824;2022-11-15T03:22:21;9.25;;;6.35;;
63089;SDS011;49174;43.198;27.824;2022-11-15T03:24:53;10.38;;;5.93;;
63089;SDS011;49174;43.198;27.824;2022-11-15T03:27:21;9.57;;;4.55;;
63089;SDS011;49174;43.198;27.824;2022-11-15T03:29:53;8.15;;;3.92;;
63089;SDS011;49174;43.198;27.824;2022-11-15T03:32:28;6.90;;;3.90;;
63089;SDS011;49174;43.198;27.824;2022-11-15T03:37:33;9.95;;;5.03;;
63089;SDS011;49174;43.198;27.824;2022-11-15T03:40:04;8.07;;;4.70;;
63089;SDS011;49174;43.198;27.824;2022-11-15T03:42:36;9.93;;;4.95;;
63089;SDS011;49174;43.198;27.824;2022-11-15T03:45:16;7.28;;;4.53;;
63089;SDS011;49174;43.198;27.824;2022-11-15T03:47:54;8.17;;;4.60;;
63089;SDS011;49174;43.198;27.824;2022-11-15T03:50:44;9.18;;;4.30;;
63089;SDS011;49174;43.198;27.824;2022-11-15T03:53:10;8.27;;;4.10;;
63089;SDS011;49174;43.198;27.824;2022-11-15T03:55:39;6.47;;;3.65;;
63089;SDS011;49174;43.198;27.824;2022-11-15T03:58:05;8.02;;;4.47;;
63089;SDS011;49174;43.198;27.824;2022-11-15T04:00:30;7.57;;;4.55;;
63089;SDS011;49174;43.198;27.824;2022-11-15T04:02:56;8.45;;;5.10;;
63089;SDS011;49174;43.198;27.824;2022-11-15T04:05:22;7.43;;;4.43;;
63089;SDS011;49174;43.198;27.824;2022-11-15T04:07:47;8.65;;;4.22;;
63089;SDS011;49174;43.198;27.824;2022-11-15T04:10:13;7.85;;;4.63;;
63089;SDS011;49174;43.198;27.824;2022-11-15T04:12:40;7.90;;;4.45;;
63089;SDS011;49174;43.198;27.824;2022-11-15T04:15:18;8.68;;;4.63;;
63089;SDS011;49174;43.198;27.824;2022-11-15T04:17:47;8.45;;;4.28;;
63089;SDS011;49174;43.198;27.824;2022-11-15T04:20:18;7.60;;;4.22;;
63089;SDS011;49174;43.198;27.824;2022-11-15T04:23:09;7.55;;;3.60;;
63089;SDS011;49174;43.198;27.824;2022-11-15T04:25:55;7.65;;;4.22;;
63089;SDS011;49174;43.198;27.824;2022-11-15T04:28:21;6.93;;;4.18;;
63089;SDS011;49174;43.198;27.824;2022-11-15T04:30:47;6.18;;;3.70;;
63089;SDS011;49174;43.198;27.824;2022-11-15T04:33:13;7.88;;;4.32;;
63089;SDS011;49174;43.198;27.824;2022-11-15T04:35:38;6.30;;;3.83;;
63089;SDS011;49174;43.198;27.824;2022-11-15T04:38:05;6.70;;;4.18;;
63089;SDS011;49174;43.198;27.824;2022-11-15T04:40:32;7.40;;;3.95;;
63089;SDS011;49174;43.198;27.824;2022-11-15T04:42:58;9.20;;;5.10;;
63089;SDS011;49174;43.198;27.824;2022-11-15T04:45:23;10.60;;;4.10;;
63089;SDS011;49174;43.198;27.824;2022-11-15T04:47:49;7.80;;;4.43;;
63089;SDS011;49174;43.198;27.824;2022-11-15T04:50:15;6.68;;;4.40;;
63089;SDS011;49174;43.198;27.824;2022-11-15T04:52:42;8.77;;;4.28;;
63089;SDS011;49174;43.198;27.824;2022-11-15T04:55:16;8.80;;;4.00;;
63089;SDS011;49174;43.198;27.824;2022-11-15T05:18:53;7.90;;;4.72;;
63089;SDS011;49174;43.198;27.824;2022-11-15T05:34:48;8.20;;;4.20;;
63089;SDS011;49174;43.198;27.824;2022-11-15T05:37:15;7.65;;;4.72;;
63089;SDS011;49174;43.198;27.824;2022-11-15T05:42:23;11.93;;;7.18;;
63089;SDS011;49174;43.198;27.824;2022-11-15T05:47:32;24.63;;;11.68;;
63089;SDS011;49174;43.198;27.824;2022-11-15T05:52:50;7.60;;;4.10;;
63089;SDS011;49174;43.198;27.824;2022-11-15T05:58:12;8.52;;;4.28;;
63089;SDS011;49174;43.198;27.824;2022-11-15T06:11:26;7.25;;;4.57;;
63089;SDS011;49174;43.198;27.824;2022-11-15T06:16:40;8.80;;;5.55;;
63089;SDS011;49174;43.198;27.824;2022-11-15T06:19:06;9.20;;;5.05;;
63089;SDS011;49174;43.198;27.824;2022-11-15T06:21:32;9.98;;;4.97;;
63089;SDS011;49174;43.198;27.824;2022-11-15T08:10:18;5.65;;;2.85;;
63089;SDS011;49174;43.198;27.824;2022-11-15T08:12:45;9.25;;;3.88;;
63089;SDS011;49174;43.198;27.824;2022-11-15T08:23:38;7.75;;;3.13;;
63089;SDS011;49174;43.198;27.824;2022-11-15T08:37:48;5.90;;;3.20;;
63089;SDS011;49174;43.198;27.824;2022-11-15T10:15:13;4.80;;;3.10;;
63089;SDS011;49174;43.198;27.824;2022-11-15T10:17:49;8.25;;;3.33;;
63089;SDS011;49174;43.198;27.824;2022-11-15T10:20:52;7.40;;;3.22;;
63089;SDS011;49174;43.198;27.824;2022-11-15T10:28:46;6.65;;;3.47;;
63089;SDS011;49174;43.198;27.824;2022-11-15T10:34:21;4.88;;;3.17;;
63089;SDS011;49174;43.198;27.824;2022-11-15T10:36:58;7.43;;;3.20;;
63089;SDS011;49174;43.198;27.824;2022-11-15T10:39:27;5.82;;;3.20;;
63089;SDS011;49174;43.198;27.824;2022-11-15T10:41:53;9.18;;;3.22;;
63089;SDS011;49174;43.198;27.824;2022-11-15T10:44:21;7.97;;;3.40;;
63089;SDS011;49174;43.198;27.824;2022-11-15T10:49:22;6.00;;;3.15;;
63089;SDS011;49174;43.198;27.824;2022-11-15T10:52:13;4.10;;;2.70;;
63089;SDS011;49174;43.198;27.824;2022-11-15T10:54:49;5.82;;;3.30;;
63089;SDS011;49174;43.198;27.824;2022-11-15T10:57:16;4.68;;;3.00;;
63089;SDS011;49174;43.198;27.824;2022-11-15T10:59:45;5.05;;;3.28;;
63089;SDS011;49174;43.198;27.824;2022-11-15T12:13:53;5.15;;;3.67;;
63089;SDS011;49174;43.198;27.824;2022-11-15T12:16:23;6.40;;;3.72;;
63089;SDS011;49174;43.198;27.824;2022-11-15T12:18:53;5.70;;;3.90;;
63089;SDS011;49174;43.198;27.824;2022-11-15T12:21:24;8.10;;;4.32;;
63089;SDS011;49174;43.198;27.824;2022-11-15T12:23:54;6.10;;;3.60;;
63089;SDS011;49174;43.198;27.824;2022-11-15T12:26:26;6.18;;;3.28;;
63089;SDS011;49174;43.198;27.824;2022-11-15T12:31:40;7.38;;;4.20;;
63089;SDS011;49174;43.198;27.824;2022-11-15T12:34:14;7.82;;;5.38;;
63089;SDS011;49174;43.198;27.824;2022-11-15T12:36:55;6.32;;;3.83;;
63089;SDS011;49174;43.198;27.824;2022-11-15T12:39:20;7.07;;;5.13;;
63089;SDS011;49174;43.198;27.824;2022-11-15T12:47:23;7.40;;;4.97;;
63089;SDS011;49174;43.198;27.824;2022-11-15T12:49:51;8.18;;;5.15;;
63089;SDS011;49174;43.198;27.824;2022-11-15T12:52:18;6.80;;;4.68;;
63089;SDS011;49174;43.198;27.824;2022-11-15T12:59:51;8.00;;;5.53;;
63089;SDS011;49174;43.198;27.824;2022-11-15T13:02:35;10.57;;;5.20;;
63089;SDS011;49174;43.198;27.824;2022-11-15T13:08:07;8.40;;;4.53;;
63089;SDS011;49174;43.198;27.824;2022-11-15T13:10:33;8.85;;;5.40;;
63089;SDS011;49174;43.198;27.824;2022-11-15T13:13:08;7.55;;;5.35;;
63089;SDS011;49174;43.198;27.824;2022-11-15T13:23:28;8.52;;;5.20;;
63089;SDS011;49174;43.198;27.824;2022-11-15T13:28:35;8.13;;;5.63;;
63089;SDS011;49174;43.198;27.824;2022-11-15T13:33:44;7.45;;;4.38;;
63089;SDS011;49174;43.198;27.824;2022-11-15T13:36:20;4.95;;;3.30;;
63089;SDS011;49174;43.198;27.824;2022-11-15T13:38:59;6.32;;;3.97;;
63089;SDS011;49174;43.198;27.824;2022-11-15T13:41:29;8.52;;;4.97;;
63089;SDS011;49174;43.198;27.824;2022-11-15T13:43:57;7.00;;;3.88;;
63089;SDS011;49174;43.198;27.824;2022-11-15T13:46:25;7.05;;;4.50;;
63089;SDS011;49174;43.198;27.824;2022-11-15T13:48:56;11.15;;;4.47;;
63089;SDS011;49174;43.198;27.824;2022-11-15T13:51:26;6.47;;;3.58;;
63089;SDS011;49174;43.198;27.824;2022-11-15T13:53:57;4.65;;;3.30;;
63089;SDS011;49174;43.198;27.824;2022-11-15T13:56:27;12.48;;;6.47;;
63089;SDS011;49174;43.198;27.824;2022-11-15T13:58:54;9.55;;;6.00;;
63089;SDS011;49174;43.198;27.824;2022-11-15T14:01:20;8.13;;;6.07;;
63089;SDS011;49174;43.198;27.824;2022-11-15T14:03:48;6.63;;;4.40;;
63089;SDS011;49174;43.198;27.824;2022-11-15T14:06:17;7.43;;;4.97;;
63089;SDS011;49174;43.198;27.824;2022-11-15T14:11:53;8.35;;;4.30;;
63089;SDS011;49174;43.198;27.824;2022-11-15T14:14:21;6.15;;;3.65;;
63089;SDS011;49174;43.198;27.824;2022-11-15T14:16:49;8.15;;;4.30;;
63089;SDS011;49174;43.198;27.824;2022-11-15T14:24:40;7.70;;;3.63;;
63089;SDS011;49174;43.198;27.824;2022-11-15T14:29:49;8.82;;;4.20;;
63089;SDS011;49174;43.198;27.824;2022-11-15T14:32:16;7.97;;;3.85;;
63089;SDS011;49174;43.198;27.824;2022-11-15T14:34:49;5.43;;;3.05;;
63089;SDS011;49174;43.198;27.824;2022-11-15T14:37:21;6.82;;;2.72;;
63089;SDS011;49174;43.198;27.824;2022-11-15T14:39:50;6.28;;;2.42;;
63089;SDS011;49174;43.198;27.824;2022-11-15T14:42:16;5.47;;;3.08;;
63089;SDS011;49174;43.198;27.824;2022-11-15T14:44:42;6.22;;;2.70;;
63089;SDS011;49174;43.198;27.824;2022-11-15T14:47:08;4.82;;;2.45;;
63089;SDS011;49174;43.198;27.824;2022-11-15T14:49:33;5.45;;;2.88;;
63089;SDS011;49174;43.198;27.824;2022-11-15T14:51:59;6.32;;;3.10;;
63089;SDS011;49174;43.198;27.824;2022-11-15T14:54:24;4.70;;;2.63;;
63089;SDS011;49174;43.198;27.824;2022-11-15T14:56:50;6.13;;;2.60;;
63089;SDS011;49174;43.198;27.824;2022-11-15T14:59:15;6.07;;;2.20;;
63089;SDS011;49174;43.198;27.824;2022-11-15T15:01:41;3.90;;;2.85;;
63089;SDS011;49174;43.198;27.824;2022-11-15T15:04:08;5.25;;;3.40;;
63089;SDS011;49174;43.198;27.824;2022-11-15T15:06:35;5.53;;;3.55;;
63089;SDS011;49174;43.198;27.824;2022-11-15T15:09:00;7.25;;;3.60;;
63089;SDS011;49174;43.198;27.824;2022-11-15T15:11:26;7.32;;;3.75;;
63089;SDS011;49174;43.198;27.824;2022-11-15T15:13:54;6.75;;;3.30;;
63089;SDS011;49174;43.198;27.824;2022-11-15T15:16:24;7.65;;;3.60;;
63089;SDS011;49174;43.198;27.824;2022-11-15T15:18:50;8.73;;;3.83;;
63089;SDS011;49174;43.198;27.824;2022-11-15T15:21:23;6.20;;;3.70;;
63089;SDS011;49174;43.198;27.824;2022-11-15T15:23:50;8.45;;;3.97;;
63089;SDS011;49174;43.198;27.824;2022-11-15T15:26:16;6.38;;;4.10;;
63089;SDS011;49174;43.198;27.824;2022-11-15T15:28:42;7.22;;;4.28;;
63089;SDS011;49174;43.198;27.824;2022-11-15T15:31:08;6.30;;;3.33;;
63089;SDS011;49174;43.198;27.824;2022-11-15T15:33:34;6.07;;;3.45;;
63089;SDS011;49174;43.198;27.824;2022-11-15T15:36:03;5.53;;;4.05;;
63089;SDS011;49174;43.198;27.824;2022-11-15T15:38:29;9.35;;;3.90;;
63089;SDS011;49174;43.198;27.824;2022-11-15T15:40:54;7.30;;;4.25;;
63089;SDS011;49174;43.198;27.824;2022-11-15T15:43:20;8.60;;;4.20;;
63089;SDS011;49174;43.198;27.824;2022-11-15T15:45:46;6.18;;;3.88;;
63089;SDS011;49174;43.198;27.824;2022-11-15T15:48:15;9.50;;;3.80;;
63089;SDS011;49174;43.198;27.824;2022-11-15T15:50:41;7.60;;;4.30;;
63089;SDS011;49174;43.198;27.824;2022-11-15T15:53:15;6.47;;;3.22;;
63089;SDS011;49174;43.198;27.824;2022-11-15T15:55:42;4.93;;;3.63;;
63089;SDS011;49174;43.198;27.824;2022-11-15T16:03:19;5.93;;;3.78;;
63089;SDS011;49174;43.198;27.824;2022-11-15T16:05:44;9.90;;;4.85;;
63089;SDS011;49174;43.198;27.824;2022-11-15T16:08:20;5.20;;;3.65;;
63089;SDS011;49174;43.198;27.824;2022-11-15T16:10:50;5.82;;;3.55;;
63089;SDS011;49174;43.198;27.824;2022-11-15T16:13:16;32.15;;;17.98;;
63089;SDS011;49174;43.198;27.824;2022-11-15T16:15:42;8.90;;;5.22;;
63089;SDS011;49174;43.198;27.824;2022-11-15T16:18:11;6.05;;;3.90;;
63089;SDS011;49174;43.198;27.824;2022-11-15T16:20:40;7.78;;;3.92;;
63089;SDS011;49174;43.198;27.824;2022-11-15T16:23:10;9.05;;;4.93;;
63089;SDS011;49174;43.198;27.824;2022-11-15T16:25:53;7.28;;;4.25;;
63089;SDS011;49174;43.198;27.824;2022-11-15T16:28:23;9.50;;;4.75;;
63089;SDS011;49174;43.198;27.824;2022-11-15T16:33:30;6.47;;;4.43;;
63089;SDS011;49174;43.198;27.824;2022-11-15T16:35:56;6.72;;;4.35;;
63089;SDS011;49174;43.198;27.824;2022-11-15T16:38:21;10.18;;;4.03;;
63089;SDS011;49174;43.198;27.824;2022-11-15T16:40:47;6.97;;;4.05;;
63089;SDS011;49174;43.198;27.824;2022-11-15T16:43:12;7.50;;;4.25;;
63089;SDS011;49174;43.198;27.824;2022-11-15T16:45:38;5.63;;;3.50;;
63089;SDS011;49174;43.198;27.824;2022-11-15T17:01:34;4.70;;;2.72;;
63089;SDS011;49174;43.198;27.824;2022-11-15T17:04:02;5.18;;;3.63;;
63089;SDS011;49174;43.198;27.824;2022-11-15T17:09:19;5.43;;;3.38;;
63089;SDS011;49174;43.198;27.824;2022-11-15T17:11:49;5.90;;;3.83;;
63089;SDS011;49174;43.198;27.824;2022-11-15T17:16:44;7.57;;;3.35;;
63089;SDS011;49174;43.198;27.824;2022-11-15T17:19:13;8.25;;;4.07;;
63089;SDS011;49174;43.198;27.824;2022-11-15T17:27:04;7.28;;;4.57;;
63089;SDS011;49174;43.198;27.824;2022-11-15T17:29:30;9.75;;;4.57;;
63089;SDS011;49174;43.198;27.824;2022-11-15T17:31:56;12.48;;;6.38;;
63089;SDS011;49174;43.198;27.824;2022-11-15T17:34:22;10.18;;;5.75;;
63089;SDS011;49174;43.198;27.824;2022-11-15T17:36:49;8.23;;;5.35;;
63089;SDS011;49174;43.198;27.824;2022-11-15T17:39:15;9.15;;;5.07;;
63089;SDS011;49174;43.198;27.824;2022-11-15T17:41:40;8.15;;;5.97;;
63089;SDS011;49174;43.198;27.824;2022-11-15T17:44:06;10.75;;;5.68;;
63089;SDS011;49174;43.198;27.824;2022-11-15T17:46:31;8.25;;;5.80;;
63089;SDS011;49174;43.198;27.824;2022-11-15T17:48:58;12.73;;;6.63;;
63089;SDS011;49174;43.198;27.824;2022-11-15T17:51:25;12.75;;;7.72;;
63089;SDS011;49174;43.198;27.824;2022-11-15T17:53:50;9.27;;;6.47;;
63089;SDS011;49174;43.198;27.824;2022-11-15T17:56:21;11.23;;;6.35;;
63089;SDS011;49174;43.198;27.824;2022-11-15T17:58:48;15.38;;;8.05;;
63089;SDS011;49174;43.198;27.824;2022-11-15T18:01:23;12.43;;;8.30;;
63089;SDS011;49174;43.198;27.824;2022-11-15T18:03:53;16.35;;;7.38;;
63089;SDS011;49174;43.198;27.824;2022-11-15T18:06:35;12.13;;;8.02;;
63089;SDS011;49174;43.198;27.824;2022-11-15T18:09:02;14.07;;;9.10;;
63089;SDS011;49174;43.198;27.824;2022-11-15T18:11:29;10.65;;;7.55;;
63089;SDS011;49174;43.198;27.824;2022-11-15T18:13:58;10.75;;;6.13;;
63089;SDS011;49174;43.198;27.824;2022-11-15T18:16:26;12.82;;;6.35;;
63089;SDS011;49174;43.198;27.824;2022-11-15T18:18:53;50.90;;;29.30;;
63089;SDS011;49174;43.198;27.824;2022-11-15T18:21:23;21.20;;;12.18;;
63089;SDS011;49174;43.198;27.824;2022-11-15T18:23:53;36.50;;;19.90;;
63089;SDS011;49174;43.198;27.824;2022-11-15T18:26:24;27.42;;;16.65;;
63089;SDS011;49174;43.198;27.824;2022-11-15T18:28:52;19.75;;;11.98;;
63089;SDS011;49174;43.198;27.824;2022-11-15T18:31:23;16.55;;;9.60;;
63089;SDS011;49174;43.198;27.824;2022-11-15T18:33:51;14.75;;;8.05;;
63089;SDS011;49174;43.198;27.824;2022-11-15T18:36:18;16.25;;;10.18;;
63089;SDS011;49174;43.198;27.824;2022-11-15T18:38:48;17.15;;;8.25;;
63089;SDS011;49174;43.198;27.824;2022-11-15T18:41:22;12.75;;;7.78;;
63089;SDS011;49174;43.198;27.824;2022-11-15T18:43:55;14.38;;;8.52;;
63089;SDS011;49174;43.198;27.824;2022-11-15T18:46:23;14.00;;;8.07;;
63089;SDS011;49174;43.198;27.824;2022-11-15T18:48:51;12.00;;;7.30;;
63089;SDS011;49174;43.198;27.824;2022-11-15T18:51:18;13.35;;;8.02;;
63089;SDS011;49174;43.198;27.824;2022-11-15T18:53:46;15.80;;;8.48;;
63089;SDS011;49174;43.198;27.824;2022-11-15T18:56:13;19.25;;;14.00;;
63089;SDS011;49174;43.198;27.824;2022-11-15T18:58:42;16.42;;;10.05;;
63089;SDS011;49174;43.198;27.824;2022-11-15T19:01:13;18.50;;;11.43;;
63089;SDS011;49174;43.198;27.824;2022-11-15T19:03:41;15.45;;;8.65;;
63089;SDS011;49174;43.198;27.824;2022-11-15T19:06:12;13.98;;;7.53;;
63089;SDS011;49174;43.198;27.824;2022-11-15T19:08:40;12.95;;;8.40;;
63089;SDS011;49174;43.198;27.824;2022-11-15T19:11:13;12.57;;;7.55;;
63089;SDS011;49174;43.198;27.824;2022-11-15T19:13:41;17.02;;;9.10;;
63089;SDS011;49174;43.198;27.824;2022-11-15T19:16:08;12.60;;;7.60;;
63089;SDS011;49174;43.198;27.824;2022-11-15T19:18:36;12.50;;;7.35;;
63089;SDS011;49174;43.198;27.824;2022-11-15T19:21:03;17.98;;;8.80;;
63089;SDS011;49174;43.198;27.824;2022-11-15T19:23:34;18.23;;;9.32;;
63089;SDS011;49174;43.198;27.824;2022-11-15T19:26:01;20.17;;;9.77;;
63089;SDS011;49174;43.198;27.824;2022-11-15T19:28:28;13.13;;;8.82;;
63089;SDS011;49174;43.198;27.824;2022-11-15T19:31:01;16.15;;;8.13;;
63089;SDS011;49174;43.198;27.824;2022-11-15T19:33:28;15.55;;;8.10;;
63089;SDS011;49174;43.198;27.824;2022-11-15T19:36:03;11.43;;;7.25;;
63089;SDS011;49174;43.198;27.824;2022-11-15T19:38:31;13.18;;;7.90;;
63089;SDS011;49174;43.198;27.824;2022-11-15T19:40:58;15.27;;;8.50;;
63089;SDS011;49174;43.198;27.824;2022-11-15T19:43:24;10.15;;;7.57;;
63089;SDS011;49174;43.198;27.824;2022-11-15T19:45:51;11.73;;;7.57;;
63089;SDS011;49174;43.198;27.824;2022-11-15T19:48:26;13.57;;;8.07;;
63089;SDS011;49174;43.198;27.824;2022-11-15T19:50:53;14.57;;;8.85;;
63089;SDS011;49174;43.198;27.824;2022-11-15T19:53:19;15.63;;;8.77;;
63089;SDS011;49174;43.198;27.824;2022-11-15T19:56:00;13.43;;;8.25;;
63089;SDS011;49174;43.198;27.824;2022-11-15T19:58:38;11.85;;;7.85;;
63089;SDS011;49174;43.198;27.824;2022-11-15T20:01:23;16.15;;;8.07;;
63089;SDS011;49174;43.198;27.824;2022-11-15T20:03:51;11.35;;;7.25;;
63089;SDS011;49174;43.198;27.824;2022-11-15T20:06:38;13.80;;;8.10;;
63089;SDS011;49174;43.198;27.824;2022-11-15T20:09:05;16.42;;;9.43;;
63089;SDS011;49174;43.198;27.824;2022-11-15T20:11:32;15.45;;;7.90;;
63089;SDS011;49174;43.198;27.824;2022-11-15T20:13:59;13.30;;;8.07;;
63089;SDS011;49174;43.198;27.824;2022-11-15T20:16:26;12.38;;;7.53;;
63089;SDS011;49174;43.198;27.824;2022-11-15T20:18:52;12.48;;;7.22;;
63089;SDS011;49174;43.198;27.824;2022-11-15T20:21:18;13.35;;;7.97;;
63089;SDS011;49174;43.198;27.824;2022-11-15T20:23:44;16.90;;;8.25;;
63089;SDS011;49174;43.198;27.824;2022-11-15T20:26:10;15.55;;;8.73;;
63089;SDS011;49174;43.198;27.824;2022-11-15T20:28:36;13.60;;;8.93;;
63089;SDS011;49174;43.198;27.824;2022-11-15T20:31:03;11.93;;;7.65;;
63089;SDS011;49174;43.198;27.824;2022-11-15T20:33:29;15.38;;;8.45;;
63089;SDS011;49174;43.198;27.824;2022-11-15T20:35:54;15.10;;;8.32;;
63089;SDS011;49174;43.198;27.824;2022-11-15T20:38:20;13.45;;;7.88;;
63089;SDS011;49174;43.198;27.824;2022-11-15T20:40:47;16.23;;;9.27;;
63089;SDS011;49174;43.198;27.824;2022-11-15T20:43:14;13.98;;;8.70;;
63089;SDS011;49174;43.198;27.824;2022-11-15T20:45:44;12.18;;;7.63;;
63089;SDS011;49174;43.198;27.824;2022-11-15T20:48:11;12.52;;;8.18;;
63089;SDS011;49174;43.198;27.824;2022-11-15T20:50:38;11.93;;;7.32;;
63089;SDS011;49174;43.198;27.824;2022-11-15T20:53:04;16.67;;;7.80;;
63089;SDS011;49174;43.198;27.824;2022-11-15T20:55:37;14.45;;;9.30;;
63089;SDS011;49174;43.198;27.824;2022-11-15T20:58:04;16.75;;;9.05;;
63089;SDS011;49174;43.198;27.824;2022-11-15T21:00:29;14.77;;;8.73;;
63089;SDS011;49174;43.198;27.824;2022-11-15T21:02:55;25.02;;;13.27;;
63089;SDS011;49174;43.198;27.824;2022-11-15T21:05:20;25.23;;;15.25;;
63089;SDS011;49174;43.198;27.824;2022-11-15T21:07:46;22.30;;;14.20;;
63089;SDS011;49174;43.198;27.824;2022-11-15T21:10:11;26.20;;;13.85;;
63089;SDS011;49174;43.198;27.824;2022-11-15T21:12:56;19.83;;;12.20;;
63089;SDS011;49174;43.198;27.824;2022-11-15T21:15:21;19.95;;;11.43;;
63089;SDS011;49174;43.198;27.824;2022-11-15T21:17:47;19.20;;;11.75;;
63089;SDS011;49174;43.198;27.824;2022-11-15T21:20:12;18.23;;;11.23;;
63089;SDS011;49174;43.198;27.824;2022-11-15T21:22:39;15.80;;;10.10;;
63089;SDS011;49174;43.198;27.824;2022-11-15T21:25:05;20.45;;;11.35;;
63089;SDS011;49174;43.198;27.824;2022-11-15T21:27:30;20.13;;;11.02;;
63089;SDS011;49174;43.198;27.824;2022-11-15T21:29:56;19.83;;;12.00;;
63089;SDS011;49174;43.198;27.824;2022-11-15T21:32:21;22.45;;;11.63;;
63089;SDS011;49174;43.198;27.824;2022-11-15T21:34:47;20.63;;;11.52;;
63089;SDS011;49174;43.198;27.824;2022-11-15T21:37:12;17.25;;;11.48;;
63089;SDS011;49174;43.198;27.824;2022-11-15T21:39:38;19.13;;;12.65;;
63089;SDS011;49174;43.198;27.824;2022-11-15T21:42:04;22.83;;;14.02;;
63089;SDS011;49174;43.198;27.824;2022-11-15T21:44:30;18.80;;;14.38;;
63089;SDS011;49174;43.198;27.824;2022-11-15T21:46:55;21.13;;;15.68;;
63089;SDS011;49174;43.198;27.824;2022-11-15T21:49:21;23.38;;;15.63;;
63089;SDS011;49174;43.198;27.824;2022-11-15T21:51:47;28.15;;;19.60;;
63089;SDS011;49174;43.198;27.824;2022-11-15T21:54:13;27.67;;;20.85;;
63089;SDS011;49174;43.198;27.824;2022-11-15T21:56:38;28.77;;;19.55;;
63089;SDS011;49174;43.198;27.824;2022-11-15T21:59:04;27.88;;;21.00;;
63089;SDS011;49174;43.198;27.824;2022-11-15T22:01:29;27.10;;;20.65;;
63089;SDS011;49174;43.198;27.824;2022-11-15T22:04:13;29.17;;;21.70;;
63089;SDS011;49174;43.198;27.824;2022-11-15T22:06:39;25.88;;;20.75;;
63089;SDS011;49174;43.198;27.824;2022-11-15T22:09:06;30.92;;;22.15;;
63089;SDS011;49174;43.198;27.824;2022-11-15T22:11:31;33.17;;;22.65;;
63089;SDS011;49174;43.198;27.824;2022-11-15T22:13:58;30.50;;;22.17;;
63089;SDS011;49174;43.198;27.824;2022-11-15T22:16:24;29.27;;;21.15;;
63089;SDS011;49174;43.198;27.824;2022-11-15T22:18:49;30.13;;;21.83;;